Time;durP1;ratioP1;P1;durP2;ratioP2;P2;SDS_P1;SDS_P2;PMS_P1;PMS_P2;Temp;Humidity;BMP_temperature;BMP_pressure;BME280_temperature;BME280_humidity;BME280_pressure;Samples;Min_cycle;Max_cycle;Signal;HPM_P1;HPM_P2
2024/01/25 00:01:54;;;;;;;20.60;16.58;;;9.20;96.70;;;;;;5046615;28;20072;-77
2024/01/25 00:07:19;;;;;;;24.75;16.80;;;9.10;96.70;;;;;;5063798;28;21069;-77
2024/01/25 00:09:48;;;;;;;23.77;16.15;;;9.10;96.70;;;;;;5057017;28;20106;-78
2024/01/25 00:12:21;;;;;;;22.42;16.63;;;9.10;96.70;;;;;;5058907;28;20163;-79
2024/01/25 00:14:52;;;;;;;21.38;15.40;;;9.20;96.70;;;;;;5062744;28;20103;-79
2024/01/25 00:17:24;;;;;;;19.67;16.67;;;9.10;96.70;;;;;;5064534;28;20106;-80
2024/01/25 00:19:58;;;;;;;22.15;16.33;;;9.10;96.70;;;;;;5060283;28;20122;-82
2024/01/25 00:22:31;;;;;;;19.95;15.65;;;9.10;96.70;;;;;;5059061;28;20745;-82
2024/01/25 00:25:02;;;;;;;23.63;16.52;;;9.10;96.70;;;;;;5062250;28;20123;-83
2024/01/25 00:27:33;;;;;;;22.48;16.50;;;9.10;96.70;;;;;;5064740;28;20139;-82
2024/01/25 00:30:06;;;;;;;24.30;17.00;;;9.10;96.70;;;;;;5049466;28;20068;-84
2024/01/25 00:32:38;;;;;;;20.40;16.25;;;9.10;96.70;;;;;;5062776;28;20067;-83
2024/01/25 00:35:13;;;;;;;22.48;16.00;;;9.10;96.70;;;;;;5056122;28;20060;-83
2024/01/25 00:37:43;;;;;;;21.55;15.80;;;9.10;96.70;;;;;;5060449;28;20056;-83
2024/01/25 00:40:13;;;;;;;24.90;16.30;;;9.10;96.70;;;;;;5063657;28;20076;-83
2024/01/25 00:42:44;;;;;;;20.45;15.43;;;9.10;96.70;;;;;;5044727;28;20552;-83
2024/01/25 00:48:26;;;;;;;21.85;15.93;;;9.10;96.70;;;;;;5056848;28;20115;-84
2024/01/25 00:50:57;;;;;;;22.15;15.57;;;9.10;96.70;;;;;;5066103;28;20082;-84
2024/01/25 00:53:26;;;;;;;20.60;16.15;;;9.10;96.70;;;;;;5079623;28;20524;-83
2024/01/25 00:56:52;;;;;;;22.00;16.70;;;9.10;96.70;;;;;;5080432;28;20512;-84
2024/01/25 00:59:21;;;;;;;22.92;16.95;;;9.10;96.70;;;;;;5065221;28;20140;-84
2024/01/25 01:02:31;;;;;;;21.02;16.33;;;9.10;96.70;;;;;;5082517;28;20077;-84
2024/01/25 01:05:00;;;;;;;24.80;18.33;;;9.00;96.70;;;;;;5081622;28;20118;-83
2024/01/25 01:07:51;;;;;;;22.02;17.40;;;9.10;96.70;;;;;;5087856;28;20068;-84
2024/01/25 01:10:23;;;;;;;20.73;16.30;;;9.00;96.70;;;;;;5080174;28;20067;-83
2024/01/25 01:12:54;;;;;;;21.90;16.42;;;9.10;96.70;;;;;;5084237;28;20052;-83
2024/01/25 01:15:46;;;;;;;21.92;16.10;;;9.10;96.70;;;;;;5081180;28;20413;-83
2024/01/25 01:18:15;;;;;;;24.15;17.67;;;9.10;96.70;;;;;;5080702;28;20539;-83
2024/01/25 01:20:45;;;;;;;20.33;16.80;;;9.10;96.70;;;;;;5089532;28;20060;-84
2024/01/25 01:23:18;;;;;;;21.98;16.95;;;9.10;96.70;;;;;;5089001;28;20048;-84
2024/01/25 01:26:01;;;;;;;21.42;15.93;;;9.10;96.70;;;;;;5076998;28;20545;-83
2024/01/25 01:28:30;;;;;;;19.63;15.90;;;9.10;96.70;;;;;;5066048;28;20552;-84
2024/01/25 01:31:10;;;;;;;20.85;16.80;;;9.10;96.70;;;;;;5075553;28;20056;-83
2024/01/25 01:33:44;;;;;;;22.50;16.38;;;9.10;96.70;;;;;;5080647;28;20060;-78
2024/01/25 01:36:12;;;;;;;22.23;16.42;;;9.10;96.70;;;;;;5082064;28;20052;-77
2024/01/25 01:38:42;;;;;;;25.58;16.20;;;9.20;96.70;;;;;;5084414;28;20513;-77
2024/01/25 01:41:12;;;;;;;21.77;16.30;;;9.10;96.70;;;;;;5084621;28;20060;-77
2024/01/25 01:43:41;;;;;;;19.58;15.27;;;9.10;96.70;;;;;;5079353;28;20067;-78
2024/01/25 01:46:20;;;;;;;19.90;14.98;;;9.10;96.70;;;;;;5084440;28;20048;-78
2024/01/25 01:48:52;;;;;;;20.05;15.50;;;9.10;96.70;;;;;;5085988;28;20052;-77
2024/01/25 01:51:24;;;;;;;21.27;15.70;;;9.20;96.70;;;;;;5080578;28;20072;-77
2024/01/25 01:53:55;;;;;;;21.33;16.05;;;9.20;96.70;;;;;;5085960;28;20047;-77
2024/01/25 01:56:28;;;;;;;18.02;14.70;;;9.20;96.70;;;;;;5077850;28;20371;-78
2024/01/25 01:59:00;;;;;;;19.52;14.52;;;9.20;96.70;;;;;;5088124;28;20661;-77
2024/01/25 02:01:32;;;;;;;19.55;14.10;;;9.10;96.70;;;;;;5086480;28;20052;-77
2024/01/25 02:04:01;;;;;;;18.98;14.68;;;9.10;96.70;;;;;;5071065;28;20106;-77
2024/01/25 02:06:39;;;;;;;18.63;13.85;;;9.20;96.70;;;;;;5078751;28;20055;-78
2024/01/25 02:09:10;;;;;;;20.23;13.88;;;9.10;96.70;;;;;;5079070;28;20080;-78
2024/01/25 02:11:40;;;;;;;16.48;12.80;;;9.10;96.70;;;;;;5083391;28;20155;-77
2024/01/25 02:14:12;;;;;;;17.67;13.20;;;9.10;96.70;;;;;;5080017;28;20109;-78
2024/01/25 02:17:30;;;;;;;18.70;14.55;;;9.10;96.70;;;;;;5083893;28;20170;-78
2024/01/25 02:19:58;;;;;;;18.25;14.05;;;9.10;96.70;;;;;;5075075;28;20522;-77
2024/01/25 02:22:38;;;;;;;18.10;13.35;;;9.10;96.70;;;;;;5080287;28;20064;-77
2024/01/25 02:25:08;;;;;;;17.65;13.80;;;9.10;96.70;;;;;;5069576;28;20048;-78
2024/01/25 02:27:38;;;;;;;19.73;12.68;;;9.10;96.70;;;;;;5079556;28;20063;-79
2024/01/25 02:30:18;;;;;;;15.73;12.63;;;9.20;96.70;;;;;;5071359;28;20059;-78
2024/01/25 02:33:12;;;;;;;15.40;11.52;;;9.20;96.70;;;;;;5082267;28;20565;-77
2024/01/25 02:35:44;;;;;;;13.82;11.52;;;9.20;96.70;;;;;;5084274;28;20051;-77
2024/01/25 02:38:14;;;;;;;14.50;11.05;;;9.10;96.70;;;;;;5078712;28;20509;-77
2024/01/25 02:40:43;;;;;;;16.63;11.50;;;9.10;96.70;;;;;;5077849;28;20102;-77
2024/01/25 02:43:11;;;;;;;14.43;10.57;;;9.10;96.70;;;;;;5086661;28;20060;-77
2024/01/25 02:45:40;;;;;;;14.48;9.98;;;9.10;96.70;;;;;;5078305;28;20048;-77
2024/01/25 02:48:08;;;;;;;14.85;11.30;;;9.10;96.70;;;;;;5078982;28;20059;-78
2024/01/25 02:50:52;;;;;;;15.10;10.70;;;9.10;96.70;;;;;;5083841;28;20816;-78
2024/01/25 02:53:22;;;;;;;16.23;10.43;;;9.10;96.70;;;;;;5083194;28;20060;-78
2024/01/25 02:55:53;;;;;;;12.88;11.02;;;9.10;96.70;;;;;;5087480;28;20055;-77
2024/01/25 02:58:22;;;;;;;12.32;10.13;;;9.10;96.70;;;;;;5069539;28;20772;-77
2024/01/25 03:00:50;;;;;;;14.55;9.60;;;9.10;96.70;;;;;;5087065;28;20394;-77
2024/01/25 03:03:19;;;;;;;14.25;10.38;;;9.20;96.70;;;;;;5087690;28;20056;-77
2024/01/25 03:05:47;;;;;;;15.55;10.23;;;9.20;96.70;;;;;;5085817;28;20058;-77
2024/01/25 03:08:20;;;;;;;14.20;9.70;;;9.20;96.70;;;;;;5087324;28;20472;-77
2024/01/25 03:10:50;;;;;;;18.13;10.43;;;9.10;96.70;;;;;;5085943;28;20516;-77
2024/01/25 03:13:19;;;;;;;13.32;9.75;;;9.10;96.70;;;;;;5086900;28;20524;-77
2024/01/25 03:15:51;;;;;;;10.68;9.30;;;9.10;96.70;;;;;;5090716;28;20048;-77
2024/01/25 03:18:22;;;;;;;13.18;8.82;;;9.10;96.70;;;;;;5088004;28;20059;-77
2024/01/25 03:20:52;;;;;;;13.63;8.88;;;9.10;96.70;;;;;;5068615;28;20869;-77
2024/01/25 03:23:47;;;;;;;11.85;9.38;;;9.20;96.70;;;;;;5085736;28;20623;-77
2024/01/25 03:26:29;;;;;;;12.15;9.98;;;9.20;96.70;;;;;;5084703;28;20048;-77
2024/01/25 03:28:57;;;;;;;11.98;8.98;;;9.10;96.70;;;;;;5086774;28;20056;-77
2024/01/25 03:31:43;;;;;;;12.80;9.05;;;9.10;96.70;;;;;;5080819;28;20095;-77
2024/01/25 03:34:12;;;;;;;13.35;9.50;;;9.10;96.70;;;;;;5085647;28;20056;-77
2024/01/25 03:36:44;;;;;;;13.02;8.13;;;9.10;96.70;;;;;;5087360;28;20557;-77
2024/01/25 03:39:37;;;;;;;11.00;8.43;;;9.10;96.70;;;;;;5078530;28;20113;-77
2024/01/25 03:42:17;;;;;;;10.38;8.52;;;9.10;96.70;;;;;;5087528;28;20056;-78
2024/01/25 03:44:47;;;;;;;9.93;8.00;;;9.10;96.70;;;;;;5087242;28;20125;-77
2024/01/25 03:47:15;;;;;;;10.90;8.27;;;9.10;96.70;;;;;;5068266;28;20040;-77
2024/01/25 03:49:43;;;;;;;10.68;7.93;;;9.10;96.70;;;;;;5067779;28;20079;-77
2024/01/25 03:52:12;;;;;;;12.35;8.43;;;9.10;96.70;;;;;;5073765;28;20131;-77
2024/01/25 03:54:40;;;;;;;10.88;8.25;;;9.10;96.70;;;;;;5067462;28;20510;-78
2024/01/25 03:57:09;;;;;;;11.93;8.57;;;9.20;96.70;;;;;;5071022;28;20047;-79
2024/01/25 04:00:22;;;;;;;11.68;7.50;;;9.10;96.70;;;;;;5051765;28;20281;-78
2024/01/25 04:03:09;;;;;;;10.25;7.78;;;9.10;96.70;;;;;;5055266;28;20063;-76
2024/01/25 04:05:44;;;;;;;10.30;7.95;;;9.10;96.70;;;;;;5066535;28;20063;-77
2024/01/25 04:08:13;;;;;;;10.57;8.13;;;9.10;96.70;;;;;;5064436;28;20056;-76
2024/01/25 04:10:41;;;;;;;11.25;7.32;;;9.10;96.70;;;;;;5035014;28;20052;-77
2024/01/25 04:13:10;;;;;;;9.27;7.40;;;9.10;96.70;;;;;;5069448;28;20056;-77
2024/01/25 04:15:41;;;;;;;7.50;6.70;;;9.10;96.70;;;;;;5070512;28;20063;-76
2024/01/25 04:18:09;;;;;;;9.93;7.15;;;9.10;96.70;;;;;;5083467;28;20052;-76
2024/01/25 04:20:45;;;;;;;11.38;7.72;;;9.10;96.70;;;;;;5067833;28;20055;-78
2024/01/25 04:23:19;;;;;;;11.73;7.05;;;9.10;96.70;;;;;;5082303;28;20599;-80
2024/01/25 04:25:51;;;;;;;9.52;6.78;;;9.10;96.70;;;;;;5067419;28;20084;-80
2024/01/25 04:28:20;;;;;;;8.02;6.25;;;9.20;96.70;;;;;;5074927;28;20078;-80
2024/01/25 04:30:50;;;;;;;10.60;7.28;;;9.20;96.70;;;;;;5075832;28;20509;-80
2024/01/25 04:33:19;;;;;;;11.10;6.65;;;9.20;96.70;;;;;;5072646;28;20417;-81
2024/01/25 04:35:49;;;;;;;10.43;6.72;;;9.20;96.70;;;;;;5074866;28;20052;-81
2024/01/25 04:38:18;;;;;;;9.13;6.72;;;9.20;96.70;;;;;;5076026;28;20044;-81
2024/01/25 04:40:47;;;;;;;8.55;6.10;;;9.20;96.70;;;;;;5065552;28;20460;-81
2024/01/25 04:43:37;;;;;;;9.15;6.38;;;9.20;96.70;;;;;;5078492;28;20063;-78
2024/01/25 04:46:09;;;;;;;8.55;6.47;;;9.20;96.70;;;;;;5074439;28;20137;-78
2024/01/25 04:49:16;;;;;;;7.20;6.32;;;9.20;96.70;;;;;;5085043;28;20087;-77
2024/01/25 04:51:44;;;;;;;9.98;6.60;;;9.20;96.70;;;;;;5083682;28;20078;-79
2024/01/25 04:54:15;;;;;;;8.20;6.72;;;9.20;96.70;;;;;;5080954;28;20056;-79
2024/01/25 04:56:44;;;;;;;10.52;7.45;;;9.20;96.70;;;;;;5089469;28;20056;-79
2024/01/25 04:59:12;;;;;;;9.98;7.10;;;9.30;96.70;;;;;;5074822;28;20059;-80
2024/01/25 05:01:46;;;;;;;9.63;7.38;;;9.20;96.70;;;;;;5077971;28;20774;-80
2024/01/25 05:04:19;;;;;;;12.15;7.53;;;9.20;96.70;;;;;;5090001;28;20131;-80
2024/01/25 05:06:48;;;;;;;14.13;8.57;;;9.30;96.70;;;;;;5092236;28;20052;-81
2024/01/25 05:09:22;;;;;;;12.05;8.93;;;9.30;96.70;;;;;;5074299;28;20088;-78
2024/01/25 05:12:05;;;;;;;10.43;8.60;;;9.30;96.70;;;;;;5079121;28;20060;-79
2024/01/25 05:14:34;;;;;;;10.18;8.32;;;9.30;96.70;;;;;;5082446;28;20057;-78
2024/01/25 05:17:05;;;;;;;10.75;8.15;;;9.30;96.70;;;;;;5084712;28;20473;-78
2024/01/25 05:19:34;;;;;;;10.93;8.38;;;9.30;96.70;;;;;;5090380;28;20105;-78
2024/01/25 05:22:06;;;;;;;12.13;8.65;;;9.30;96.70;;;;;;5089477;28;20058;-78
2024/01/25 05:24:34;;;;;;;10.68;8.65;;;9.40;96.70;;;;;;5084054;28;20059;-76
2024/01/25 05:27:03;;;;;;;12.18;8.48;;;9.30;96.70;;;;;;5079972;28;20059;-78
2024/01/25 05:29:32;;;;;;;12.05;8.23;;;9.30;96.70;;;;;;5075813;28;20052;-78
2024/01/25 05:32:01;;;;;;;13.55;10.23;;;9.20;96.70;;;;;;5091746;28;20063;-77
2024/01/25 05:34:34;;;;;;;13.02;9.00;;;9.20;96.70;;;;;;5088698;28;20052;-78
2024/01/25 05:37:06;;;;;;;13.32;10.25;;;9.20;96.70;;;;;;5091648;28;20390;-78
2024/01/25 05:39:37;;;;;;;12.02;8.68;;;9.20;96.70;;;;;;5083132;28;20048;-77
2024/01/25 05:42:06;;;;;;;13.30;9.10;;;9.20;96.70;;;;;;5081520;28;20674;-78
2024/01/25 05:44:36;;;;;;;11.98;8.75;;;9.30;96.70;;;;;;5084973;28;20097;-78
2024/01/25 05:47:25;;;;;;;10.02;8.45;;;9.30;96.70;;;;;;5060164;28;20048;-78
2024/01/25 05:49:59;;;;;;;17.48;11.20;;;9.30;96.70;;;;;;5081683;28;20436;-77
2024/01/25 05:52:29;;;;;;;37.20;24.27;;;9.30;96.70;;;;;;5089021;28;20804;-77
2024/01/25 05:54:58;;;;;;;29.55;19.85;;;9.30;96.70;;;;;;5079531;28;20139;-79
2024/01/25 05:57:31;;;;;;;24.00;16.27;;;9.30;96.70;;;;;;5079323;28;20074;-78
2024/01/25 06:00:05;;;;;;;32.17;21.85;;;9.30;96.70;;;;;;5082299;28;20056;-78
2024/01/25 06:02:40;;;;;;;24.42;17.85;;;9.30;96.70;;;;;;5077829;28;20071;-78
2024/01/25 06:05:13;;;;;;;21.67;15.20;;;9.30;96.70;;;;;;5087435;28;20051;-80
2024/01/25 06:07:42;;;;;;;21.27;16.40;;;9.40;96.70;;;;;;5087180;28;20468;-77
2024/01/25 06:10:11;;;;;;;19.80;14.27;;;9.40;96.70;;;;;;5070580;28;20056;-78
2024/01/25 06:12:41;;;;;;;18.05;15.02;;;9.40;96.70;;;;;;5077872;28;20080;-78
2024/01/25 06:15:10;;;;;;;22.55;16.52;;;9.40;96.70;;;;;;5089376;28;20721;-78
2024/01/25 06:17:43;;;;;;;20.38;15.70;;;9.40;96.70;;;;;;5086933;28;20050;-78
2024/01/25 06:20:17;;;;;;;20.50;15.95;;;9.40;96.70;;;;;;5087938;28;20398;-78
2024/01/25 06:22:46;;;;;;;21.35;15.63;;;9.50;96.70;;;;;;5078342;28;20436;-78
2024/01/25 06:25:15;;;;;;;20.15;15.90;;;9.50;96.70;;;;;;5083456;28;20056;-78
2024/01/25 06:27:44;;;;;;;20.92;15.35;;;9.50;96.70;;;;;;5084006;28;20512;-79
2024/01/25 06:30:14;;;;;;;18.75;14.25;;;9.50;96.70;;;;;;5086944;28;20048;-78
2024/01/25 06:33:21;;;;;;;17.00;11.93;;;9.40;96.70;;;;;;5084362;28;20070;-78
2024/01/25 06:35:52;;;;;;;16.35;11.85;;;9.40;96.70;;;;;;5071370;28;20056;-78
2024/01/25 06:38:21;;;;;;;17.02;13.10;;;9.40;96.70;;;;;;5084553;28;20661;-78
2024/01/25 06:40:59;;;;;;;18.63;12.93;;;9.40;96.70;;;;;;5079366;28;20415;-78
2024/01/25 06:43:45;;;;;;;17.13;13.25;;;9.50;96.70;;;;;;5080926;28;20139;-79
2024/01/25 06:46:17;;;;;;;20.60;14.15;;;9.50;96.70;;;;;;5085934;28;20051;-78
2024/01/25 06:49:24;;;;;;;17.63;13.57;;;9.50;96.70;;;;;;5023585;28;20068;-77
2024/01/25 06:51:59;;;;;;;15.25;13.07;;;9.50;96.70;;;;;;5013664;28;20081;-77
2024/01/25 06:55:21;;;;;;;;;;;;;;;;;;;;;
2024/01/25 07:01:58;;;;;;;18.88;14.60;;;9.60;96.70;;;;;;4994489;28;20064;-79
2024/01/25 07:04:27;;;;;;;21.50;15.45;;;9.60;96.70;;;;;;4987537;28;20622;-79
2024/01/25 07:07:01;;;;;;;18.67;14.07;;;9.60;96.70;;;;;;5004797;28;20062;-79
2024/01/25 07:09:30;;;;;;;20.42;14.55;;;9.60;96.70;;;;;;4988230;28;20057;-79
2024/01/25 07:11:58;;;;;;;21.65;14.82;;;9.60;96.70;;;;;;5009658;28;20577;-78
2024/01/25 07:14:27;;;;;;;20.92;14.43;;;9.60;96.70;;;;;;5006676;28;20100;-78
2024/01/25 07:16:56;;;;;;;18.48;14.90;;;9.60;96.70;;;;;;5004841;28;20156;-79
2024/01/25 07:19:25;;;;;;;23.08;15.30;;;9.60;96.70;;;;;;4996151;28;20053;-78
2024/01/25 07:21:53;;;;;;;17.35;14.25;;;9.60;96.70;;;;;;5010763;28;20064;-78
2024/01/25 07:24:23;;;;;;;22.38;14.93;;;9.70;96.70;;;;;;5004925;28;20058;-79
2024/01/25 07:26:53;;;;;;;20.80;15.73;;;9.70;96.70;;;;;;5042217;28;20560;-79
2024/01/25 07:29:24;;;;;;;20.60;14.75;;;9.70;96.70;;;;;;5047864;28;20052;-82
2024/01/25 07:31:53;;;;;;;18.80;14.63;;;9.70;96.70;;;;;;5066645;28;20589;-82
2024/01/25 07:34:22;;;;;;;23.60;16.40;;;9.70;96.70;;;;;;5066755;28;20056;-80
2024/01/25 07:37:16;;;;;;;18.45;14.70;;;9.70;96.70;;;;;;5067390;28;20052;-80
2024/01/25 07:40:17;;;;;;;19.02;14.10;;;9.80;96.70;;;;;;4945445;29;20055;-80
2024/01/25 07:42:47;;;;;;;18.77;16.23;;;9.80;96.70;;;;;;5022784;28;20055;-80
2024/01/25 07:45:16;;;;;;;23.17;17.05;;;9.80;96.70;;;;;;5062545;28;20053;-80
2024/01/25 07:48:04;;;;;;;22.55;15.93;;;9.80;96.70;;;;;;5067727;28;20071;-81
2024/01/25 07:50:42;;;;;;;24.50;16.55;;;9.90;96.70;;;;;;5029804;28;20071;-80
2024/01/25 07:53:12;;;;;;;22.88;16.52;;;9.90;96.70;;;;;;5068520;28;20057;-81
2024/01/25 07:55:43;;;;;;;21.45;16.52;;;9.90;96.70;;;;;;5066153;28;20159;-81
2024/01/25 07:58:14;;;;;;;23.05;17.40;;;9.90;96.70;;;;;;5073059;28;20606;-80
2024/01/25 08:00:45;;;;;;;25.23;17.98;;;9.90;96.70;;;;;;5066682;28;20056;-79
2024/01/25 08:03:21;;;;;;;25.45;17.17;;;9.90;96.70;;;;;;5067314;28;20052;-81
2024/01/25 08:06:14;;;;;;;24.52;16.75;;;10.00;96.70;;;;;;5049361;28;20075;-80
2024/01/25 08:08:43;;;;;;;20.80;16.33;;;10.00;96.70;;;;;;5067474;28;20059;-81
2024/01/25 08:11:13;;;;;;;28.42;18.25;;;10.00;96.70;;;;;;5050338;28;20611;-81
2024/01/25 08:13:43;;;;;;;23.92;16.80;;;10.00;96.70;;;;;;5066910;28;20076;-80
2024/01/25 08:16:13;;;;;;;25.27;17.45;;;10.00;96.70;;;;;;5073299;28;20983;-80
2024/01/25 08:18:43;;;;;;;24.45;16.67;;;10.00;96.70;;;;;;5079901;28;20459;-80
2024/01/25 08:21:21;;;;;;;20.98;17.02;;;10.10;96.70;;;;;;5069178;28;20779;-80
2024/01/25 08:24:13;;;;;;;24.38;17.05;;;10.10;96.70;;;;;;5066458;28;20509;-80
2024/01/25 08:26:47;;;;;;;22.52;17.88;;;10.10;96.70;;;;;;5058529;28;20084;-80
2024/01/25 08:29:39;;;;;;;24.48;17.63;;;10.10;96.70;;;;;;5048943;28;20055;-80
2024/01/25 08:32:08;;;;;;;22.10;16.35;;;10.20;96.70;;;;;;5067202;28;20052;-80
2024/01/25 08:34:37;;;;;;;26.42;16.75;;;10.20;96.70;;;;;;5066578;28;20686;-81
2024/01/25 08:37:06;;;;;;;20.75;16.63;;;10.20;96.70;;;;;;5067144;28;20056;-80
2024/01/25 08:39:35;;;;;;;24.60;17.20;;;10.30;96.70;;;;;;5066691;28;20127;-81
2024/01/25 08:42:06;;;;;;;25.67;17.90;;;10.30;96.70;;;;;;5066431;28;20052;-80
2024/01/25 08:44:44;;;;;;;21.10;15.90;;;10.40;96.70;;;;;;5066429;28;20118;-80
2024/01/25 08:47:17;;;;;;;23.42;16.25;;;10.40;96.70;;;;;;5062165;28;20053;-80
2024/01/25 08:49:46;;;;;;;22.42;15.60;;;10.40;96.70;;;;;;5064598;28;20076;-80
2024/01/25 08:52:15;;;;;;;18.77;14.88;;;10.50;96.70;;;;;;5083777;28;20056;-79
2024/01/25 08:54:44;;;;;;;20.98;14.77;;;10.50;96.70;;;;;;5075889;28;20706;-79
2024/01/25 08:57:15;;;;;;;19.95;15.02;;;10.60;96.70;;;;;;5072327;28;20044;-80
2024/01/25 08:59:44;;;;;;;20.70;14.85;;;10.60;96.70;;;;;;5080266;28;20733;-79
2024/01/25 09:02:13;;;;;;;18.13;14.25;;;10.60;96.70;;;;;;5079762;28;20478;-79
2024/01/25 09:04:43;;;;;;;19.23;14.35;;;10.60;96.70;;;;;;5081482;28;20134;-79
2024/01/25 09:07:12;;;;;;;17.45;13.27;;;10.70;96.70;;;;;;5074555;28;20619;-80
2024/01/25 09:09:41;;;;;;;19.75;14.65;;;10.70;96.70;;;;;;5051956;28;20048;-79
2024/01/25 09:12:11;;;;;;;16.98;14.13;;;10.70;96.70;;;;;;5085921;28;20106;-79
2024/01/25 09:14:43;;;;;;;20.50;14.48;;;10.70;96.70;;;;;;5085855;28;20576;-80
2024/01/25 09:17:13;;;;;;;21.00;14.98;;;10.70;96.70;;;;;;5068372;28;20448;-79
2024/01/25 09:19:42;;;;;;;18.88;14.23;;;10.70;96.70;;;;;;5086094;28;20049;-79
2024/01/25 09:22:12;;;;;;;21.88;14.32;;;10.80;96.70;;;;;;5078242;28;20095;-79
2024/01/25 09:24:41;;;;;;;17.33;13.77;;;10.80;96.70;;;;;;5085605;28;20413;-79
2024/01/25 09:27:10;;;;;;;16.33;13.70;;;10.90;96.70;;;;;;5085205;28;20057;-79
2024/01/25 09:29:41;;;;;;;18.05;14.52;;;10.90;96.70;;;;;;5070339;28;20147;-79
2024/01/25 09:32:10;;;;;;;21.63;14.02;;;11.00;96.70;;;;;;5079846;28;21066;-80
2024/01/25 09:34:39;;;;;;;20.15;14.63;;;11.00;96.70;;;;;;5081110;28;20047;-79
2024/01/25 09:37:08;;;;;;;18.05;14.63;;;11.00;96.70;;;;;;5083369;28;20060;-79
2024/01/25 09:39:38;;;;;;;18.33;13.95;;;11.10;96.70;;;;;;5088711;28;20054;-82
2024/01/25 09:42:08;;;;;;;17.25;15.13;;;11.20;96.70;;;;;;5072812;28;20270;-82
2024/01/25 09:44:38;;;;;;;19.00;13.95;;;11.20;96.70;;;;;;5080702;28;20060;-81
2024/01/25 09:47:08;;;;;;;21.35;15.05;;;11.20;96.70;;;;;;5080988;28;20060;-79
2024/01/25 09:49:41;;;;;;;17.77;13.90;;;11.30;96.70;;;;;;5080627;28;20040;-79
2024/01/25 09:52:12;;;;;;;20.50;13.02;;;11.40;96.70;;;;;;5070491;28;20144;-79
2024/01/25 09:54:48;;;;;;;17.75;13.93;;;11.40;96.70;;;;;;5071913;28;20110;-79
2024/01/25 09:57:22;;;;;;;17.98;13.05;;;11.40;96.70;;;;;;5083236;28;20077;-80
2024/01/25 09:59:51;;;;;;;20.88;13.73;;;11.40;96.70;;;;;;5074074;28;20465;-79
2024/01/25 10:02:22;;;;;;;17.38;13.38;;;11.50;96.70;;;;;;5078752;28;20052;-79
2024/01/25 10:04:54;;;;;;;18.92;14.00;;;11.50;96.70;;;;;;5070247;28;20106;-79
2024/01/25 10:07:42;;;;;;;17.45;13.43;;;11.50;96.70;;;;;;5077726;28;20135;-79
2024/01/25 10:10:16;;;;;;;20.50;13.35;;;11.50;96.70;;;;;;5086706;28;20075;-79
2024/01/25 10:12:47;;;;;;;21.08;14.48;;;11.50;96.70;;;;;;5079842;28;20131;-79
2024/01/25 10:15:18;;;;;;;20.83;14.63;;;11.50;96.70;;;;;;5073252;28;20077;-79
2024/01/25 10:17:49;;;;;;;16.95;13.50;;;11.60;96.70;;;;;;5084005;28;20139;-81
2024/01/25 10:20:38;;;;;;;26.38;18.23;;;11.60;96.70;;;;;;5078686;28;20117;-79
2024/01/25 10:23:08;;;;;;;20.35;14.80;;;11.70;96.70;;;;;;5080451;28;20446;-79
2024/01/25 10:25:40;;;;;;;19.20;14.80;;;11.70;96.70;;;;;;5079234;28;20082;-78
2024/01/25 10:28:12;;;;;;;236.38;166.02;;;11.80;96.70;;;;;;5072906;28;20071;-79
2024/01/25 10:30:41;;;;;;;85.68;61.97;;;11.80;96.70;;;;;;5084793;28;20048;-80
2024/01/25 10:33:13;;;;;;;40.92;33.72;;;11.90;96.70;;;;;;5080396;28;20052;-79
2024/01/25 10:35:49;;;;;;;24.10;19.02;;;11.90;96.70;;;;;;5083457;28;20063;-77
2024/01/25 10:38:23;;;;;;;27.17;20.73;;;11.90;96.70;;;;;;5075709;28;20596;-79
2024/01/25 10:40:53;;;;;;;33.50;27.35;;;12.00;96.70;;;;;;5087104;28;20516;-80
2024/01/25 10:43:25;;;;;;;31.98;25.98;;;12.00;96.70;;;;;;5071188;28;20122;-79
2024/01/25 10:45:57;;;;;;;26.83;17.40;;;12.00;96.70;;;;;;5081727;28;20064;-80
2024/01/25 10:48:31;;;;;;;28.23;20.58;;;12.10;96.70;;;;;;5069746;28;20066;-79
2024/01/25 10:51:04;;;;;;;33.08;24.08;;;12.00;96.70;;;;;;5078892;28;20467;-80
2024/01/25 10:53:35;;;;;;;43.45;32.40;;;12.00;96.70;;;;;;5079052;28;20082;-79
2024/01/25 10:56:05;;;;;;;31.60;23.05;;;12.00;96.70;;;;;;5070572;28;20186;-79
2024/01/25 10:58:37;;;;;;;25.08;18.48;;;12.00;96.70;;;;;;5066260;28;20049;-79
2024/01/25 11:01:14;;;;;;;23.27;18.13;;;12.00;96.70;;;;;;5085031;28;20048;-79
2024/01/25 11:03:49;;;;;;;22.77;18.17;;;12.00;96.70;;;;;;5068628;28;20143;-80
2024/01/25 11:06:24;;;;;;;24.00;17.08;;;12.00;96.70;;;;;;5056305;28;20513;-80
2024/01/25 11:09:04;;;;;;;22.63;18.20;;;12.00;96.70;;;;;;5082899;28;20051;-79
2024/01/25 11:11:33;;;;;;;24.67;18.58;;;12.00;96.70;;;;;;5085907;28;20090;-79
2024/01/25 11:14:01;;;;;;;26.60;18.40;;;12.00;96.70;;;;;;5086275;28;20127;-79
2024/01/25 11:16:31;;;;;;;24.35;17.55;;;12.00;96.70;;;;;;5079908;28;20243;-79
2024/01/25 11:19:07;;;;;;;23.92;18.23;;;12.10;96.70;;;;;;5068782;28;20539;-79
2024/01/25 11:21:41;;;;;;;22.77;17.25;;;12.10;96.70;;;;;;5088188;28;20135;-82
2024/01/25 11:24:13;;;;;;;21.83;17.02;;;12.10;96.70;;;;;;5077810;28;20561;-79
2024/01/25 11:26:44;;;;;;;21.60;16.67;;;12.10;96.70;;;;;;5086750;28;20143;-79
2024/01/25 11:29:16;;;;;;;23.35;17.08;;;12.10;96.70;;;;;;5073988;28;20049;-80
2024/01/25 11:31:45;;;;;;;23.75;18.00;;;12.20;96.70;;;;;;5067139;28;20059;-79
2024/01/25 11:34:20;;;;;;;24.67;18.30;;;12.20;96.70;;;;;;5087927;28;20051;-83
2024/01/25 11:36:52;;;;;;;20.98;17.55;;;12.20;96.70;;;;;;5077229;28;20262;-79
2024/01/25 11:39:27;;;;;;;23.50;17.88;;;12.30;96.70;;;;;;5039361;28;20053;-79
2024/01/25 11:41:56;;;;;;;24.45;19.27;;;12.30;96.70;;;;;;5044937;28;20068;-79
2024/01/25 11:44:34;;;;;;;26.63;20.63;;;12.30;96.70;;;;;;5044593;28;20087;-79
2024/01/25 11:47:04;;;;;;;24.35;19.50;;;12.40;96.70;;;;;;5026472;28;20151;-79
2024/01/25 11:49:35;;;;;;;24.45;20.27;;;12.40;96.70;;;;;;5027934;28;20064;-79
2024/01/25 11:52:07;;;;;;;23.48;19.58;;;12.40;96.70;;;;;;5059038;28;20095;-80
2024/01/25 11:54:36;;;;;;;28.02;18.88;;;12.40;96.70;;;;;;5061089;28;20056;-79
2024/01/25 11:57:05;;;;;;;24.95;18.98;;;12.40;96.70;;;;;;5063253;28;20067;-80
2024/01/25 11:59:36;;;;;;;22.83;17.42;;;12.40;96.70;;;;;;5064316;28;20056;-81
2024/01/25 12:02:06;;;;;;;20.50;16.52;;;12.40;96.70;;;;;;5060620;28;20110;-81
2024/01/25 12:04:37;;;;;;;19.30;15.25;;;12.40;96.70;;;;;;5064298;28;20895;-80
2024/01/25 12:07:06;;;;;;;19.55;15.95;;;12.40;96.70;;;;;;5060972;28;20064;-81
2024/01/25 12:09:35;;;;;;;21.17;15.95;;;12.40;96.70;;;;;;5063076;28;20052;-81
2024/01/25 12:12:05;;;;;;;19.17;15.55;;;12.40;96.70;;;;;;5047331;28;20056;-80
2024/01/25 12:14:35;;;;;;;20.33;15.32;;;12.50;96.70;;;;;;5064074;28;20148;-81
2024/01/25 12:17:05;;;;;;;18.15;15.00;;;12.50;96.70;;;;;;5069928;28;20065;-81
2024/01/25 12:19:36;;;;;;;17.77;14.85;;;12.50;96.70;;;;;;5081440;28;20040;-81
2024/01/25 12:22:05;;;;;;;18.88;14.05;;;12.50;96.70;;;;;;5090666;28;20060;-82
2024/01/25 12:24:35;;;;;;;20.30;14.77;;;12.50;96.70;;;;;;5076625;28;20143;-81
2024/01/25 12:27:04;;;;;;;18.52;14.25;;;12.50;96.70;;;;;;5077898;28;20091;-80
2024/01/25 12:29:35;;;;;;;16.67;12.38;;;12.50;96.70;;;;;;5078164;28;20052;-81
2024/01/25 12:32:05;;;;;;;18.98;13.13;;;12.50;96.70;;;;;;5085655;28;20083;-80
2024/01/25 12:34:37;;;;;;;19.55;13.85;;;12.60;96.70;;;;;;5075922;28;20044;-80
2024/01/25 12:37:06;;;;;;;18.33;12.38;;;12.60;96.70;;;;;;5071533;28;20060;-80
2024/01/25 12:39:35;;;;;;;15.95;11.88;;;12.70;96.70;;;;;;5068296;28;20075;-81
2024/01/25 12:42:04;;;;;;;17.00;11.85;;;12.70;96.70;;;;;;5077173;28;20094;-81
2024/01/25 12:44:33;;;;;;;15.32;11.65;;;12.80;96.70;;;;;;5075512;28;20052;-80
2024/01/25 12:47:06;;;;;;;15.98;10.82;;;12.80;96.70;;;;;;5081985;28;20063;-80
2024/01/25 12:49:36;;;;;;;14.30;11.18;;;12.80;96.70;;;;;;5081495;28;20056;-80
2024/01/25 12:52:30;;;;;;;16.65;9.90;;;12.80;96.70;;;;;;5076299;28;20119;-80
2024/01/25 12:54:59;;;;;;;16.52;9.48;;;12.90;96.70;;;;;;5061208;28;20585;-80
2024/01/25 12:57:28;;;;;;;11.77;9.48;;;13.00;96.70;;;;;;5053869;28;20076;-80
2024/01/25 13:00:00;;;;;;;15.98;8.82;;;13.10;96.70;;;;;;5060732;28;20139;-80
2024/01/25 13:02:29;;;;;;;14.25;9.68;;;13.20;96.70;;;;;;5069711;28;20056;-80
2024/01/25 13:05:05;;;;;;;15.07;10.05;;;13.20;96.70;;;;;;5070325;28;20068;-81
2024/01/25 13:07:36;;;;;;;13.55;9.45;;;13.20;96.70;;;;;;5076374;28;20056;-79
2024/01/25 13:10:06;;;;;;;11.35;8.88;;;13.30;96.70;;;;;;5069279;28;20375;-82
2024/01/25 13:12:34;;;;;;;17.08;10.77;;;13.30;96.70;;;;;;5065735;28;20056;-80
2024/01/25 13:15:04;;;;;;;14.68;9.77;;;13.40;96.70;;;;;;5074194;28;20505;-81
2024/01/25 13:17:36;;;;;;;15.70;11.27;;;13.40;96.70;;;;;;5064754;28;20106;-80